Time;durP1;ratioP1;P1;durP2;ratioP2;P2;SDS_P1;SDS_P2;PMS_P1;PMS_P2;Temp;Humidity;BMP_temperature;BMP_pressure;BME280_temperature;BME280_humidity;BME280_pressure;Samples;Min_cycle;Max_cycle;Signal;HPM_P1;HPM_P2
2022/10/15 00:01:10;;;;;;;148.82;72.03;;;;;;;;;;5003091;28;20077;-75
2022/10/15 00:03:38;;;;;;;170.07;77.15;;;;;;;;;;5027811;28;20440;-74
2022/10/15 00:06:08;;;;;;;236.15;83.88;;;;;;;;;;5026505;28;20072;-74
2022/10/15 00:08:34;;;;;;;162.40;75.88;;;;;;;;;;5032030;28;20045;-75
2022/10/15 00:11:10;;;;;;;154.63;73.93;;;;;;;;;;5031508;28;20369;-75
2022/10/15 00:13:37;;;;;;;178.10;78.35;;;;;;;;;;5017147;28;20056;-74
2022/10/15 00:16:03;;;;;;;;;;;;;;;;;;5020957;28;20100;-76
2022/10/15 00:18:29;;;;;;;155.25;73.00;;;;;;;;;;5031493;28;19988;-75
2022/10/15 00:20:55;;;;;;;169.52;78.45;;;;;;;;;;5031385;28;20102;-74
2022/10/15 00:23:21;;;;;;;182.60;80.07;;;;;;;;;;5020686;28;20409;-75
2022/10/15 00:25:47;;;;;;;169.68;78.93;;;;;;;;;;5011711;28;20049;-74
2022/10/15 00:28:13;;;;;;;153.02;75.75;;;;;;;;;;5012416;28;20042;-75
2022/10/15 00:30:39;;;;;;;155.65;76.57;;;;;;;;;;5012176;28;20052;-75
2022/10/15 00:33:05;;;;;;;179.82;79.88;;;;;;;;;;5028892;28;20545;-74
2022/10/15 00:35:31;;;;;;;167.50;77.00;;;;;;;;;;5030872;28;20038;-74
2022/10/15 00:37:57;;;;;;;172.70;76.88;;;;;;;;;;5029957;28;20049;-75
2022/10/15 00:40:24;;;;;;;150.70;73.82;;;;;;;;;;5012016;28;20496;-74
2022/10/15 00:42:50;;;;;;;184.48;79.82;;;;;;;;;;5011529;28;20046;-74
2022/10/15 00:45:16;;;;;;;145.68;75.13;;;;;;;;;;5043176;28;20049;-74
2022/10/15 00:47:45;;;;;;;193.55;79.45;;;;;;;;;;5031881;28;20053;-73
2022/10/15 00:50:22;;;;;;;161.77;77.95;;;;;;;;;;5019742;28;20103;-75
2022/10/15 00:52:55;;;;;;;179.25;79.95;;;;;;;;;;5011871;28;20042;-75
2022/10/15 00:55:32;;;;;;;201.50;82.30;;;;;;;;;;5031447;28;20128;-74
2022/10/15 00:58:00;;;;;;;221.85;88.55;;;;;;;;;;5034563;28;20068;-75
2022/10/15 01:00:27;;;;;;;198.05;84.00;;;;;;;;;;5035557;28;20049;-76
2022/10/15 01:02:53;;;;;;;;;;;;;;;;;;5021212;28;20133;-75
2022/10/15 01:05:20;;;;;;;170.07;80.63;;;;;;;;;;5015251;28;20016;-74
2022/10/15 01:07:46;;;;;;;154.48;78.15;;;;;;;;;;5015247;28;20049;-75
2022/10/15 01:10:13;;;;;;;191.32;84.95;;;;;;;;;;5024083;28;20048;-75
2022/10/15 01:12:42;;;;;;;218.38;88.20;;;;;;;;;;5031030;28;20049;-75
2022/10/15 01:15:14;;;;;;;170.25;79.50;;;;;;;;;;5032866;28;20191;-74
2022/10/15 01:17:45;;;;;;;167.27;80.13;;;;;;;;;;5034954;28;20120;-73
2022/10/15 01:20:11;;;;;;;186.90;83.57;;;;;;;;;;5022354;28;20060;-76
2022/10/15 01:22:47;;;;;;;171.88;78.82;;;;;;;;;;5031189;28;20045;-74
2022/10/15 01:25:13;;;;;;;145.38;73.57;;;;;;;;;;5014430;28;20041;-74
2022/10/15 01:27:43;;;;;;;152.30;72.30;;;;;;;;;;5014927;28;20049;-74
2022/10/15 01:30:12;;;;;;;151.95;76.78;;;;;;;;;;5014222;28;20509;-74
2022/10/15 01:32:41;;;;;;;189.98;80.13;;;;;;;;;;5014304;28;20042;-71
2022/10/15 01:35:26;;;;;;;156.82;76.30;;;;;;;;;;5031759;28;20175;-73
2022/10/15 01:37:55;;;;;;;152.90;72.57;;;;;;;;;;5034313;28;20041;-71
2022/10/15 01:40:33;;;;;;;157.23;75.10;;;;;;;;;;5034715;28;20045;-75
2022/10/15 01:43:00;;;;;;;157.43;74.65;;;;;;;;;;5031532;28;20045;-70
2022/10/15 01:45:31;;;;;;;127.40;65.93;;;;;;;;;;5014815;28;20133;-74
2022/10/15 01:48:09;;;;;;;143.70;70.05;;;;;;;;;;5013867;28;20049;-75
2022/10/15 01:50:37;;;;;;;155.25;72.28;;;;;;;;;;5014393;28;20038;-76
2022/10/15 01:53:04;;;;;;;126.20;65.35;;;;;;;;;;5013520;28;20046;-74
2022/10/15 01:55:31;;;;;;;134.18;68.18;;;;;;;;;;5016365;28;20045;-72
2022/10/15 01:57:57;;;;;;;144.23;70.32;;;;;;;;;;5033407;28;20041;-73
2022/10/15 02:00:23;;;;;;;134.82;68.13;;;;;;;;;;5031565;28;20172;-74
2022/10/15 02:02:49;;;;;;;150.00;70.25;;;;;;;;;;5012869;28;20090;-71
2022/10/15 02:05:20;;;;;;;139.80;67.13;;;;;;;;;;5010419;28;20480;-70
2022/10/15 02:07:49;;;;;;;155.70;72.47;;;;;;;;;;5011019;28;20208;-71
2022/10/15 02:10:21;;;;;;;136.63;68.10;;;;;;;;;;5011069;28;20085;-76
2022/10/15 02:12:57;;;;;;;123.82;62.78;;;;;;;;;;5010810;28;20143;-73
2022/10/15 02:15:41;;;;;;;140.63;67.70;;;;;;;;;;5010959;28;20131;-73
2022/10/15 02:18:13;;;;;;;137.90;66.70;;;;;;;;;;5010440;28;20142;-72
2022/10/15 02:20:42;;;;;;;154.55;71.25;;;;;;;;;;5010837;28;20118;-73
2022/10/15 02:23:20;;;;;;;145.90;68.38;;;;;;;;;;5011103;28;20446;-73
2022/10/15 02:25:48;;;;;;;124.40;64.07;;;;;;;;;;5025921;28;20427;-75
2022/10/15 02:28:15;;;;;;;147.60;69.15;;;;;;;;;;5010623;28;20176;-75
2022/10/15 02:30:43;;;;;;;135.68;67.28;;;;;;;;;;5010530;28;20113;-74
2022/10/15 02:33:09;;;;;;;154.43;69.75;;;;;;;;;;5010455;28;20125;-73
2022/10/15 02:35:35;;;;;;;;;;;;;;;;;;5011161;28;20046;-74
2022/10/15 02:38:02;;;;;;;134.18;65.05;;;;;;;;;;5010519;28;20277;-71
2022/10/15 02:40:30;;;;;;;127.25;65.95;;;;;;;;;;5010486;28;20068;-79
2022/10/15 02:42:56;;;;;;;113.70;62.03;;;;;;;;;;5025377;28;20045;-74
2022/10/15 02:45:22;;;;;;;119.63;61.35;;;;;;;;;;5010402;28;20045;-73
2022/10/15 02:47:48;;;;;;;130.20;63.45;;;;;;;;;;5010348;28;20037;-73
2022/10/15 02:50:15;;;;;;;124.10;62.10;;;;;;;;;;5010491;28;20374;-71
2022/10/15 02:52:44;;;;;;;125.82;63.67;;;;;;;;;;5010385;28;20057;-77
2022/10/15 02:55:10;;;;;;;137.77;67.35;;;;;;;;;;5010103;28;20061;-73
2022/10/15 02:57:36;;;;;;;117.18;61.95;;;;;;;;;;5025406;28;20145;-71
2022/10/15 03:00:02;;;;;;;155.77;70.28;;;;;;;;;;4992512;28;20058;-72
2022/10/15 03:02:28;;;;;;;140.30;69.10;;;;;;;;;;5010067;28;20042;-72
2022/10/15 03:04:54;;;;;;;129.68;64.88;;;;;;;;;;5009991;28;20107;-72
2022/10/15 03:07:20;;;;;;;134.82;67.22;;;;;;;;;;5010111;28;20124;-72
2022/10/15 03:09:46;;;;;;;121.30;63.90;;;;;;;;;;5010249;28;20053;-72
2022/10/15 03:12:12;;;;;;;129.98;65.90;;;;;;;;;;5010015;28;20057;-72
2022/10/15 03:14:38;;;;;;;129.70;65.35;;;;;;;;;;5010331;28;20046;-72
2022/10/15 03:17:04;;;;;;;147.15;69.28;;;;;;;;;;5009308;28;20050;-73
2022/10/15 03:19:30;;;;;;;123.13;64.15;;;;;;;;;;5009893;28;20050;-73
2022/10/15 03:21:56;;;;;;;127.93;65.97;;;;;;;;;;5010074;28;20058;-73
2022/10/15 03:24:22;;;;;;;125.25;63.30;;;;;;;;;;5009684;28;20046;-73
2022/10/15 03:26:48;;;;;;;124.95;64.20;;;;;;;;;;5009686;28;20113;-73
2022/10/15 03:29:14;;;;;;;143.50;68.03;;;;;;;;;;5008904;28;20045;-73
2022/10/15 03:31:40;;;;;;;118.75;61.25;;;;;;;;;;5009683;28;20054;-72
2022/10/15 03:34:06;;;;;;;123.60;63.30;;;;;;;;;;5009326;28;20053;-72
2022/10/15 03:36:32;;;;;;;105.90;60.45;;;;;;;;;;4991960;28;20068;-72
2022/10/15 03:38:58;;;;;;;113.05;63.33;;;;;;;;;;5009596;28;20111;-73
2022/10/15 03:41:24;;;;;;;124.40;62.13;;;;;;;;;;5009651;28;20050;-73
2022/10/15 03:43:50;;;;;;;122.93;62.83;;;;;;;;;;5009838;28;20049;-73
2022/10/15 03:46:16;;;;;;;113.72;60.85;;;;;;;;;;5009702;28;20046;-73
2022/10/15 03:48:42;;;;;;;113.03;60.95;;;;;;;;;;5009582;28;20066;-73
2022/10/15 03:51:08;;;;;;;115.53;61.88;;;;;;;;;;5009705;28;20049;-73
2022/10/15 03:53:35;;;;;;;114.05;61.97;;;;;;;;;;5009372;28;20060;-73
2022/10/15 03:56:04;;;;;;;113.68;61.92;;;;;;;;;;5009943;28;20045;-73
2022/10/15 03:58:30;;;;;;;125.90;65.88;;;;;;;;;;5009446;28;20115;-72
2022/10/15 04:00:56;;;;;;;105.65;59.17;;;;;;;;;;5009812;28;20098;-73
2022/10/15 04:03:22;;;;;;;126.05;62.38;;;;;;;;;;5024819;28;20120;-72
2022/10/15 04:05:49;;;;;;;125.47;63.92;;;;;;;;;;5009839;28;20049;-73
2022/10/15 04:08:15;;;;;;;134.20;66.75;;;;;;;;;;4991860;28;20148;-72
2022/10/15 04:10:41;;;;;;;130.02;65.38;;;;;;;;;;5009609;28;20165;-74
2022/10/15 04:13:08;;;;;;;121.28;61.88;;;;;;;;;;5009322;28;20149;-74
2022/10/15 04:15:34;;;;;;;140.68;65.90;;;;;;;;;;5009380;28;20049;-73
2022/10/15 04:18:00;;;;;;;148.60;67.90;;;;;;;;;;5009233;28;20118;-73
2022/10/15 04:20:26;;;;;;;127.22;62.97;;;;;;;;;;5009235;28;20081;-73
2022/10/15 04:22:52;;;;;;;127.05;64.32;;;;;;;;;;5009019;28;20459;-74
2022/10/15 04:25:18;;;;;;;135.38;65.72;;;;;;;;;;5008961;28;20053;-72
2022/10/15 04:27:44;;;;;;;141.60;68.25;;;;;;;;;;5010742;28;20069;-73
2022/10/15 04:30:10;;;;;;;144.23;67.18;;;;;;;;;;5013067;28;20088;-72
2022/10/15 04:32:36;;;;;;;141.82;65.78;;;;;;;;;;5012700;28;20121;-73
2022/10/15 04:35:02;;;;;;;155.85;71.68;;;;;;;;;;5012911;28;20110;-73
2022/10/15 04:37:28;;;;;;;160.48;69.78;;;;;;;;;;5012459;28;20041;-74
2022/10/15 04:39:57;;;;;;;153.00;67.60;;;;;;;;;;5013057;28;20054;-75
2022/10/15 04:42:23;;;;;;;159.30;69.15;;;;;;;;;;5012614;28;20069;-74
2022/10/15 04:44:49;;;;;;;162.52;70.50;;;;;;;;;;5012651;28;20045;-75
2022/10/15 04:47:15;;;;;;;131.07;64.00;;;;;;;;;;4994853;28;20097;-74
2022/10/15 04:49:41;;;;;;;189.30;74.57;;;;;;;;;;5012347;28;20524;-75
2022/10/15 04:52:07;;;;;;;174.93;72.90;;;;;;;;;;5012305;28;20054;-75
2022/10/15 04:54:33;;;;;;;177.77;73.38;;;;;;;;;;5027613;28;20431;-73
2022/10/15 04:56:59;;;;;;;162.48;71.93;;;;;;;;;;5012396;28;20042;-73
2022/10/15 04:59:25;;;;;;;158.65;69.68;;;;;;;;;;5012365;28;20045;-72
2022/10/15 05:01:52;;;;;;;144.65;67.65;;;;;;;;;;5012525;28;20038;-73
2022/10/15 05:04:18;;;;;;;174.80;73.65;;;;;;;;;;5012332;28;20057;-72
2022/10/15 05:06:44;;;;;;;169.73;71.55;;;;;;;;;;5012260;28;20164;-73
2022/10/15 05:09:10;;;;;;;153.80;69.93;;;;;;;;;;5014944;28;20046;-74
2022/10/15 05:11:37;;;;;;;159.73;71.03;;;;;;;;;;5016415;28;20100;-73
2022/10/15 05:14:03;;;;;;;157.02;72.38;;;;;;;;;;5018493;28;20347;-73
2022/10/15 05:16:30;;;;;;;156.50;71.57;;;;;;;;;;5014945;28;20050;-73
2022/10/15 05:19:01;;;;;;;182.07;76.40;;;;;;;;;;5011516;28;20049;-71
2022/10/15 05:21:27;;;;;;;150.20;69.78;;;;;;;;;;5011988;28;20066;-72
2022/10/15 05:23:53;;;;;;;148.77;67.95;;;;;;;;;;5012167;28;20050;-73
2022/10/15 05:26:21;;;;;;;171.00;74.80;;;;;;;;;;5012415;28;20041;-73
2022/10/15 05:28:47;;;;;;;152.98;70.45;;;;;;;;;;5011803;28;20144;-71
2022/10/15 05:31:15;;;;;;;165.82;73.57;;;;;;;;;;5011805;28;20045;-73
2022/10/15 05:33:41;;;;;;;172.63;75.68;;;;;;;;;;5011679;28;20117;-71
2022/10/15 05:36:26;;;;;;;133.15;67.28;;;;;;;;;;5011634;28;20057;-73
2022/10/15 05:38:53;;;;;;;149.90;70.47;;;;;;;;;;5010823;28;20056;-73
2022/10/15 05:41:20;;;;;;;187.20;79.03;;;;;;;;;;5011741;28;20042;-72
2022/10/15 05:43:46;;;;;;;;;;;;;;;;;;5011964;28;20438;-72
2022/10/15 05:46:12;;;;;;;145.65;69.57;;;;;;;;;;5012024;28;19921;-71
2022/10/15 05:48:38;;;;;;;155.90;72.70;;;;;;;;;;5011725;28;20429;-72
2022/10/15 05:51:05;;;;;;;150.95;71.13;;;;;;;;;;5011200;28;20088;-68
2022/10/15 05:53:32;;;;;;;155.32;73.38;;;;;;;;;;5011556;28;20050;-72
2022/10/15 05:55:58;;;;;;;174.80;76.85;;;;;;;;;;5011335;28;20133;-74
2022/10/15 05:58:25;;;;;;;171.60;75.95;;;;;;;;;;5011288;28;20103;-74
2022/10/15 06:00:54;;;;;;;154.13;74.40;;;;;;;;;;5010971;28;20053;-73
2022/10/15 06:03:20;;;;;;;155.68;74.07;;;;;;;;;;5010755;28;20045;-71
2022/10/15 06:05:47;;;;;;;155.57;73.40;;;;;;;;;;5011085;28;20045;-72
2022/10/15 06:08:13;;;;;;;185.75;80.13;;;;;;;;;;5010941;28;20244;-72
2022/10/15 06:10:39;;;;;;;178.88;81.20;;;;;;;;;;5011309;28;20065;-72
2022/10/15 06:13:05;;;;;;;154.82;74.05;;;;;;;;;;5011001;28;20126;-72
2022/10/15 06:15:32;;;;;;;171.30;76.20;;;;;;;;;;5010695;28;20119;-69
2022/10/15 06:17:58;;;;;;;164.77;76.45;;;;;;;;;;5010508;28;20084;-74
2022/10/15 06:20:24;;;;;;;184.60;82.00;;;;;;;;;;5010950;28;20102;-73
2022/10/15 06:22:50;;;;;;;189.35;83.72;;;;;;;;;;5010375;28;20468;-73
2022/10/15 06:25:16;;;;;;;178.57;81.93;;;;;;;;;;5011126;28;20111;-72
2022/10/15 06:27:42;;;;;;;179.82;81.13;;;;;;;;;;5010635;28;20045;-72
2022/10/15 06:30:09;;;;;;;199.15;85.80;;;;;;;;;;5010364;28;20159;-72
2022/10/15 06:32:35;;;;;;;185.30;83.10;;;;;;;;;;5010353;28;20398;-71
2022/10/15 06:35:01;;;;;;;194.32;86.50;;;;;;;;;;5010450;28;20049;-72
2022/10/15 06:37:28;;;;;;;196.68;86.53;;;;;;;;;;5010741;28;20212;-72
2022/10/15 06:39:54;;;;;;;189.85;82.35;;;;;;;;;;5010556;28;20120;-71
2022/10/15 06:42:20;;;;;;;228.60;90.75;;;;;;;;;;5010455;28;20127;-71
2022/10/15 06:44:46;;;;;;;199.82;84.35;;;;;;;;;;5010373;28;20045;-70
2022/10/15 06:47:12;;;;;;;187.57;84.93;;;;;;;;;;5010350;28;20073;-71
2022/10/15 06:49:38;;;;;;;205.38;87.07;;;;;;;;;;5025113;28;20038;-71
2022/10/15 06:52:05;;;;;;;186.68;84.05;;;;;;;;;;5010318;28;20411;-72
2022/10/15 06:54:31;;;;;;;182.93;82.93;;;;;;;;;;5010048;28;20445;-73
2022/10/15 06:56:57;;;;;;;179.73;83.05;;;;;;;;;;5010162;28;20120;-70
2022/10/15 06:59:23;;;;;;;182.13;83.10;;;;;;;;;;5009862;28;20208;-72
2022/10/15 07:01:49;;;;;;;180.43;82.97;;;;;;;;;;5009549;28;20308;-74
2022/10/15 07:04:15;;;;;;;184.57;82.80;;;;;;;;;;5009590;28;20359;-73
2022/10/15 07:06:41;;;;;;;182.95;81.53;;;;;;;;;;5009566;28;20505;-70
2022/10/15 07:09:07;;;;;;;186.40;81.88;;;;;;;;;;5024898;28;20050;-71
2022/10/15 07:11:33;;;;;;;209.65;89.28;;;;;;;;;;5012767;28;20145;-70
2022/10/15 07:13:59;;;;;;;182.88;81.85;;;;;;;;;;5014691;28;20124;-72
2022/10/15 07:16:25;;;;;;;196.02;84.88;;;;;;;;;;5009718;28;20132;-72
2022/10/15 07:18:51;;;;;;;201.07;85.68;;;;;;;;;;4991678;28;20089;-73
2022/10/15 07:21:17;;;;;;;182.77;83.25;;;;;;;;;;5009542;28;20046;-72
2022/10/15 07:23:43;;;;;;;193.98;83.68;;;;;;;;;;5009499;28;20124;-72
2022/10/15 07:26:11;;;;;;;114.47;59.53;;;;;;;;;;5009981;28;20045;-89
2022/10/15 07:28:37;;;;;;;155.73;73.32;;;;;;;;;;5009395;28;20073;-78
2022/10/15 07:31:04;;;;;;;148.75;73.93;;;;;;;;;;5009437;28;20118;-76
2022/10/15 07:33:33;;;;;;;158.23;73.93;;;;;;;;;;5009280;28;20121;-70
2022/10/15 07:36:01;;;;;;;161.02;77.85;;;;;;;;;;5009403;28;20076;-72
2022/10/15 07:38:27;;;;;;;136.10;72.75;;;;;;;;;;5009248;28;20195;-74
2022/10/15 07:40:57;;;;;;;173.60;83.25;;;;;;;;;;5009063;28;20042;-74
2022/10/15 07:43:23;;;;;;;185.18;85.78;;;;;;;;;;5009547;28;20494;-69
2022/10/15 07:45:49;;;;;;;179.30;81.03;;;;;;;;;;5009482;28;20061;-70
2022/10/15 07:48:15;;;;;;;182.85;84.07;;;;;;;;;;5008766;28;20046;-74
2022/10/15 07:50:41;;;;;;;;;;;;;;;;;;5024036;28;20144;-68
2022/10/15 07:53:07;;;;;;;162.43;80.93;;;;;;;;;;5008725;28;19961;-71
2022/10/15 07:55:33;;;;;;;197.45;84.63;;;;;;;;;;5008906;28;20081;-71
2022/10/15 07:57:59;;;;;;;178.40;81.82;;;;;;;;;;5008396;28;20034;-70
2022/10/15 08:00:26;;;;;;;183.52;81.93;;;;;;;;;;5008157;28;20046;-70
2022/10/15 08:02:52;;;;;;;;;;;;;;;;;;5011419;28;20157;-70
2022/10/15 08:05:18;;;;;;;180.80;81.95;;;;;;;;;;5013020;28;20012;-70
2022/10/15 08:07:44;;;;;;;215.52;88.40;;;;;;;;;;5013121;28;20056;-67
2022/10/15 08:10:10;;;;;;;180.52;82.00;;;;;;;;;;5027857;28;20112;-69
2022/10/15 08:12:36;;;;;;;187.63;83.03;;;;;;;;;;5012678;28;20136;-71
2022/10/15 08:15:02;;;;;;;175.98;83.38;;;;;;;;;;5013084;28;20046;-70
2022/10/15 08:17:29;;;;;;;188.57;84.53;;;;;;;;;;5010238;28;20116;-71
2022/10/15 08:19:55;;;;;;;160.50;78.07;;;;;;;;;;5012115;28;20427;-70
2022/10/15 08:22:21;;;;;;;178.65;80.13;;;;;;;;;;5012317;28;20423;-70
2022/10/15 08:24:47;;;;;;;161.77;76.28;;;;;;;;;;5011754;28;20129;-71
2022/10/15 08:27:13;;;;;;;179.98;80.82;;;;;;;;;;5011754;28;20046;-71
2022/10/15 08:29:39;;;;;;;177.13;80.30;;;;;;;;;;5011781;28;20173;-69
2022/10/15 08:32:05;;;;;;;182.00;82.85;;;;;;;;;;5011735;28;20050;-70
2022/10/15 08:34:31;;;;;;;152.38;76.07;;;;;;;;;;5011938;28;20237;-71
2022/10/15 08:36:57;;;;;;;159.60;78.75;;;;;;;;;;5011738;28;20061;-69
2022/10/15 08:39:23;;;;;;;153.60;75.57;;;;;;;;;;5011450;28;20141;-70
2022/10/15 08:41:56;;;;;;;163.40;78.22;;;;;;;;;;5011603;28;20117;-67
2022/10/15 08:44:27;;;;;;;172.57;77.97;;;;;;;;;;5011563;28;20120;-69
2022/10/15 08:47:02;;;;;;;143.13;70.72;;;;;;;;;;5011271;28;20046;-67
2022/10/15 08:49:28;;;;;;;161.85;76.40;;;;;;;;;;5026245;28;20064;-68
2022/10/15 08:51:57;;;;;;;142.80;69.65;;;;;;;;;;5026122;28;20046;-68
2022/10/15 08:54:23;;;;;;;151.68;72.82;;;;;;;;;;5011352;28;20376;-69
2022/10/15 08:57:04;;;;;;;154.27;73.38;;;;;;;;;;4993230;28;20063;-68
2022/10/15 08:59:33;;;;;;;131.48;67.18;;;;;;;;;;5010683;28;20038;-67
2022/10/15 09:02:03;;;;;;;121.43;64.85;;;;;;;;;;4993888;28;20061;-67
2022/10/15 09:04:31;;;;;;;130.23;67.07;;;;;;;;;;5011203;28;20046;-67
2022/10/15 09:07:03;;;;;;;137.70;68.93;;;;;;;;;;5011100;28;20085;-69
2022/10/15 09:09:30;;;;;;;130.82;65.18;;;;;;;;;;5011297;28;20038;-67
2022/10/15 09:11:56;;;;;;;130.25;66.88;;;;;;;;;;5010734;28;20446;-66
2022/10/15 09:14:25;;;;;;;151.65;72.95;;;;;;;;;;5009557;28;20081;-68
2022/10/15 09:16:51;;;;;;;154.23;73.70;;;;;;;;;;5010273;28;20071;-67
2022/10/15 09:19:19;;;;;;;154.45;70.22;;;;;;;;;;5010890;28;20046;-67
2022/10/15 09:21:46;;;;;;;130.70;63.60;;;;;;;;;;5010744;28;20367;-69
2022/10/15 09:24:15;;;;;;;138.85;65.75;;;;;;;;;;5010302;28;20058;-68
2022/10/15 09:27:00;;;;;;;120.30;62.53;;;;;;;;;;5010152;28;20046;-69
2022/10/15 09:29:38;;;;;;;139.45;69.70;;;;;;;;;;5010150;28;20046;-67
2022/10/15 09:32:10;;;;;;;133.27;66.65;;;;;;;;;;5010163;28;20069;-70
2022/10/15 09:34:43;;;;;;;123.38;62.50;;;;;;;;;;5010607;28;20072;-75
2022/10/15 09:37:15;;;;;;;111.65;58.50;;;;;;;;;;5010302;28;20042;-71
2022/10/15 09:39:54;;;;;;;98.05;55.90;;;;;;;;;;5025253;28;20179;-71
2022/10/15 09:42:29;;;;;;;106.72;55.63;;;;;;;;;;4992396;28;20100;-71
2022/10/15 09:44:57;;;;;;;116.50;59.88;;;;;;;;;;5009934;28;20060;-72
2022/10/15 09:47:25;;;;;;;115.18;58.50;;;;;;;;;;5025293;28;20057;-67
2022/10/15 09:49:51;;;;;;;105.22;55.83;;;;;;;;;;5009789;28;20128;-67
2022/10/15 09:52:40;;;;;;;96.65;54.35;;;;;;;;;;5010125;28;20404;-66
2022/10/15 09:55:12;;;;;;;107.25;55.78;;;;;;;;;;5010217;28;20046;-67
2022/10/15 09:57:44;;;;;;;92.38;50.63;;;;;;;;;;5009750;28;20102;-71
2022/10/15 10:00:12;;;;;;;103.30;51.88;;;;;;;;;;5009990;28;20079;-68
2022/10/15 10:02:38;;;;;;;100.40;52.47;;;;;;;;;;5009907;28;20053;-67
2022/10/15 10:05:04;;;;;;;;;;;;;;;;;;5010044;28;20045;-72
2022/10/15 10:07:30;;;;;;;106.65;53.20;;;;;;;;;;5009941;28;20007;-70
2022/10/15 10:09:57;;;;;;;120.47;57.75;;;;;;;;;;5010331;28;20050;-70
2022/10/15 10:12:35;;;;;;;119.68;57.78;;;;;;;;;;5024998;28;20103;-70
2022/10/15 10:15:01;;;;;;;115.75;57.25;;;;;;;;;;5010095;28;20069;-65
2022/10/15 10:17:28;;;;;;;121.38;58.40;;;;;;;;;;5009275;28;20057;-71
2022/10/15 10:20:10;;;;;;;120.85;56.83;;;;;;;;;;5009777;28;20056;-70
2022/10/15 10:22:44;;;;;;;124.13;59.55;;;;;;;;;;5024698;28;20053;-69
2022/10/15 10:25:33;;;;;;;128.70;59.00;;;;;;;;;;5009171;28;20115;-68
2022/10/15 10:28:04;;;;;;;123.00;57.28;;;;;;;;;;5001467;28;20089;-65
2022/10/15 10:30:49;;;;;;;111.35;53.65;;;;;;;;;;5009571;28;20172;-69
2022/10/15 10:33:20;;;;;;;108.57;52.28;;;;;;;;;;5009726;28;20046;-68
2022/10/15 10:35:49;;;;;;;106.53;51.30;;;;;;;;;;5009386;28;20148;-66
2022/10/15 10:38:21;;;;;;;95.63;47.08;;;;;;;;;;5009200;28;20489;-71
2022/10/15 10:40:51;;;;;;;82.63;43.15;;;;;;;;;;5009703;28;20111;-70
2022/10/15 10:43:18;;;;;;;82.85;42.28;;;;;;;;;;5008958;28;20520;-70
2022/10/15 10:46:02;;;;;;;83.60;43.67;;;;;;;;;;5009303;28;20046;-71
2022/10/15 10:48:37;;;;;;;70.95;39.60;;;;;;;;;;5009638;28;20129;-71
2022/10/15 10:51:05;;;;;;;63.20;34.78;;;;;;;;;;5010177;28;20267;-70
2022/10/15 10:53:31;;;;;;;66.40;37.08;;;;;;;;;;5009911;28;20473;-70
2022/10/15 10:55:57;;;;;;;64.38;35.10;;;;;;;;;;5009977;28;20053;-74
2022/10/15 10:58:24;;;;;;;56.58;33.85;;;;;;;;;;5009576;28;20053;-71
2022/10/15 11:00:51;;;;;;;59.72;33.95;;;;;;;;;;5009287;28;20112;-71
2022/10/15 11:03:41;;;;;;;55.15;31.88;;;;;;;;;;5009255;28;20118;-75
2022/10/15 11:06:22;;;;;;;57.17;32.70;;;;;;;;;;5001491;28;20066;-70
2022/10/15 11:09:05;;;;;;;52.70;30.73;;;;;;;;;;5009179;28;20053;-75
2022/10/15 11:11:31;;;;;;;48.92;29.42;;;;;;;;;;5009501;28;20065;-70
2022/10/15 11:14:16;;;;;;;47.55;28.98;;;;;;;;;;5009108;28;20046;-73
2022/10/15 11:16:53;;;;;;;49.65;28.70;;;;;;;;;;5009028;28;20123;-79
2022/10/15 11:19:43;;;;;;;50.38;28.60;;;;;;;;;;4994189;28;20045;-72
2022/10/15 11:22:39;;;;;;;43.53;26.10;;;;;;;;;;5011503;28;20140;-68
2022/10/15 11:25:05;;;;;;;43.35;25.52;;;;;;;;;;4955686;28;20069;-77
2022/10/15 11:27:43;;;;;;;43.25;26.48;;;;;;;;;;5009065;28;20045;-72
2022/10/15 11:30:48;;;;;;;43.70;25.30;;;;;;;;;;5008752;28;20128;-73
2022/10/15 11:33:35;;;;;;;43.25;25.58;;;;;;;;;;4947627;29;20046;-72
2022/10/15 11:36:19;;;;;;;37.15;23.70;;;;;;;;;;4951431;28;20468;-73
2022/10/15 11:39:06;;;;;;;41.78;25.10;;;;;;;;;;4992472;28;20121;-75
2022/10/15 11:41:35;;;;;;;41.15;24.77;;;;;;;;;;4978426;28;20049;-71
2022/10/15 11:44:13;;;;;;;40.45;24.80;;;;;;;;;;5009037;28;20062;-73
2022/10/15 11:46:43;;;;;;;45.35;25.70;;;;;;;;;;5008913;28;20123;-72
2022/10/15 11:49:26;;;;;;;45.10;25.50;;;;;;;;;;5008767;28;20340;-71
2022/10/15 11:52:05;;;;;;;42.72;25.15;;;;;;;;;;5008713;28;20065;-67
2022/10/15 11:54:37;;;;;;;39.75;25.90;;;;;;;;;;5008426;28;20094;-69
2022/10/15 11:57:04;;;;;;;40.08;25.00;;;;;;;;;;5008462;28;20149;-76
2022/10/15 11:59:33;;;;;;;37.53;23.48;;;;;;;;;;5008456;28;20049;-74
2022/10/15 12:02:04;;;;;;;40.88;25.10;;;;;;;;;;5008218;28;20058;-71
2022/10/15 12:04:30;;;;;;;39.00;24.98;;;;;;;;;;5008331;28;20045;-71
2022/10/15 12:06:58;;;;;;;40.97;25.35;;;;;;;;;;4990515;28;20065;-70
2022/10/15 12:09:44;;;;;;;40.80;25.08;;;;;;;;;;5007765;28;20549;-69
2022/10/15 12:12:21;;;;;;;37.80;24.05;;;;;;;;;;5035732;28;20045;-78
2022/10/15 12:14:52;;;;;;;42.30;25.02;;;;;;;;;;5031186;28;20053;-76
2022/10/15 12:17:25;;;;;;;39.47;24.35;;;;;;;;;;5004208;28;20063;-82
2022/10/15 12:19:55;;;;;;;35.33;22.90;;;;;;;;;;5014488;28;20050;-87
2022/10/15 12:22:32;;;;;;;40.25;23.40;;;;;;;;;;5012993;28;20409;-82
2022/10/15 12:24:58;;;;;;;38.08;24.63;;;;;;;;;;5013043;28;20053;-78
2022/10/15 12:27:24;;;;;;;40.85;25.17;;;;;;;;;;5013183;28;20092;-83
2022/10/15 12:30:00;;;;;;;41.22;25.63;;;;;;;;;;5013680;28;20199;-85
2022/10/15 12:32:27;;;;;;;38.97;24.80;;;;;;;;;;5013480;28;20065;-89
2022/10/15 12:34:57;;;;;;;39.70;24.67;;;;;;;;;;5014423;28;20054;-81
2022/10/15 12:37:24;;;;;;;35.40;22.90;;;;;;;;;;5013667;28;20065;-88
2022/10/15 12:39:59;;;;;;;37.33;23.50;;;;;;;;;;5013566;28;20045;-82
2022/10/15 12:42:25;;;;;;;38.67;24.83;;;;;;;;;;5013341;28;20061;-82
2022/10/15 12:44:51;;;;;;;37.85;23.63;;;;;;;;;;5014069;28;20057;-90
2022/10/15 12:47:37;;;;;;;35.83;22.67;;;;;;;;;;5019299;28;20080;-88
2022/10/15 12:50:05;;;;;;;37.97;23.13;;;;;;;;;;5028068;28;20057;-73
2022/10/15 12:52:50;;;;;;;32.70;21.67;;;;;;;;;;5020665;28;20057;-88
2022/10/15 12:55:27;;;;;;;34.58;22.63;;;;;;;;;;5019319;28;20070;-80
2022/10/15 12:57:53;;;;;;;34.78;23.45;;;;;;;;;;5017754;28;20144;-95
2022/10/15 13:00:25;;;;;;;36.00;23.40;;;;;;;;;;5017211;28;20042;-85
2022/10/15 13:02:52;;;;;;;38.40;25.65;;;;;;;;;;5032233;28;20456;-80
2022/10/15 13:05:26;;;;;;;43.88;27.27;;;;;;;;;;5016832;28;20397;-77
2022/10/15 13:07:52;;;;;;;45.35;26.92;;;;;;;;;;5015954;28;20515;-82
2022/10/15 13:10:39;;;;;;;45.00;27.98;;;;;;;;;;5016129;28;20057;-85
2022/10/15 13:13:07;;;;;;;45.92;28.73;;;;;;;;;;5015892;28;20054;-86
2022/10/15 13:15:33;;;;;;;51.42;30.02;;;;;;;;;;5016330;28;20042;-84
2022/10/15 13:18:04;;;;;;;53.03;31.85;;;;;;;;;;5016418;28;20061;-79
2022/10/15 13:20:38;;;;;;;54.63;32.30;;;;;;;;;;5016285;28;20363;-76
2022/10/15 13:23:15;;;;;;;55.20;31.50;;;;;;;;;;5016164;28;20045;-77
2022/10/15 13:25:41;;;;;;;56.80;33.17;;;;;;;;;;5015803;28;20383;-77
2022/10/15 13:28:28;;;;;;;60.28;32.28;;;;;;;;;;5016016;28;20037;-79
2022/10/15 13:30:55;;;;;;;58.35;33.45;;;;;;;;;;5016680;28;20068;-77
2022/10/15 13:33:20;;;;;;;;;;;;;;;;;;5019175;28;20049;-76
2022/10/15 13:35:47;;;;;;;62.65;35.58;;;;;;;;;;5020810;28;19926;-77
2022/10/15 13:38:20;;;;;;;62.78;34.33;;;;;;;;;;5015749;28;20471;-74
2022/10/15 13:40:47;;;;;;;65.10;35.67;;;;;;;;;;5015508;28;20057;-75
2022/10/15 13:43:24;;;;;;;65.38;34.35;;;;;;;;;;5030957;28;20137;-75
2022/10/15 13:45:54;;;;;;;65.18;34.95;;;;;;;;;;5015587;28;20042;-82
2022/10/15 13:48:21;;;;;;;64.45;34.40;;;;;;;;;;5015648;28;20050;-75
2022/10/15 13:50:55;;;;;;;60.95;34.63;;;;;;;;;;5016187;28;20104;-74
2022/10/15 13:53:23;;;;;;;67.15;35.38;;;;;;;;;;5015495;28;20099;-72
2022/10/15 13:55:51;;;;;;;63.88;31.90;;;;;;;;;;5015364;28;20100;-74
2022/10/15 13:58:18;;;;;;;61.53;31.80;;;;;;;;;;5015245;28;20088;-72
2022/10/15 14:00:50;;;;;;;59.47;30.80;;;;;;;;;;5014627;28;20053;-74
2022/10/15 14:03:16;;;;;;;67.28;34.03;;;;;;;;;;5015912;28;20046;-73
2022/10/15 14:05:44;;;;;;;62.58;32.75;;;;;;;;;;5015488;28;20470;-73
2022/10/15 14:08:16;;;;;;;68.68;33.85;;;;;;;;;;5015180;28;20108;-76
2022/10/15 14:10:42;;;;;;;61.38;32.53;;;;;;;;;;5014879;28;20054;-73
2022/10/15 14:13:09;;;;;;;66.03;32.92;;;;;;;;;;5015386;28;20045;-72
2022/10/15 14:15:47;;;;;;;66.65;32.83;;;;;;;;;;5014543;28;20056;-71
2022/10/15 14:18:14;;;;;;;59.47;31.95;;;;;;;;;;5014416;28;20398;-71
2022/10/15 14:20:47;;;;;;;59.05;31.30;;;;;;;;;;5014970;28;20054;-70
2022/10/15 14:23:20;;;;;;;66.03;31.77;;;;;;;;;;5014923;28;20474;-72